sensor_id;sensor_type;location;lat;lon;timestamp;pressure;altitude;pressure_sealevel;temperature;humidity
46724;BME280;32463;48.298;11.620;2022-11-20T00:01:09;95732.53;;;4.29;100.00
46724;BME280;32463;48.298;11.620;2022-11-20T00:03:36;95727.81;;;4.34;100.00
46724;BME280;32463;48.298;11.620;2022-11-20T00:06:05;95732.13;;;4.33;100.00
46724;BME280;32463;48.298;11.620;2022-11-20T00:08:32;95730.38;;;4.34;100.00
46724;BME280;32463;48.298;11.620;2022-11-20T00:11:06;95722.56;;;4.26;100.00
46724;BME280;32463;48.298;11.620;2022-11-20T00:13:34;95739.00;;;4.33;100.00
46724;BME280;32463;48.298;11.620;2022-11-20T00:16:04;95733.19;;;4.31;100.00
46724;BME280;32463;48.298;11.620;2022-11-20T00:18:32;95732.00;;;4.25;100.00
46724;BME280;32463;48.298;11.620;2022-11-20T00:21:22;95742.78;;;4.29;100.00
46724;BME280;32463;48.298;11.620;2022-11-20T00:23:50;95745.50;;;4.27;100.00
46724;BME280;32463;48.298;11.620;2022-11-20T00:26:18;95737.28;;;4.24;100.00
46724;BME280;32463;48.298;11.620;2022-11-20T00:28:53;95741.47;;;4.25;100.00
46724;BME280;32463;48.298;11.620;2022-11-20T00:31:20;95746.59;;;4.25;100.00
46724;BME280;32463;48.298;11.620;2022-11-20T00:33:48;95743.06;;;4.26;100.00
46724;BME280;32463;48.298;11.620;2022-11-20T00:36:20;95739.84;;;4.24;100.00
46724;BME280;32463;48.298;11.620;2022-11-20T00:38:50;95741.19;;;4.18;100.00
46724;BME280;32463;48.298;11.620;2022-11-20T00:41:17;95740.09;;;4.21;100.00
46724;BME280;32463;48.298;11.620;2022-11-20T00:43:43;95738.75;;;4.17;100.00
46724;BME280;32463;48.298;11.620;2022-11-20T00:46:12;95743.59;;;4.20;100.00
46724;BME280;32463;48.298;11.620;2022-11-20T00:48:39;95743.88;;;4.17;100.00
46724;BME280;32463;48.298;11.620;2022-11-20T00:51:06;95736.56;;;4.12;100.00
46724;BME280;32463;48.298;11.620;2022-11-20T00:53:33;95736.19;;;4.17;100.00
46724;BME280;32463;48.298;11.620;2022-11-20T00:56:02;95735.50;;;4.15;100.00
46724;BME280;32463;48.298;11.620;2022-11-20T00:58:33;95742.00;;;4.19;100.00
46724;BME280;32463;48.298;11.620;2022-11-20T01:03:32;95752.66;;;4.14;100.00
46724;BME280;32463;48.298;11.620;2022-11-20T01:06:03;95758.84;;;4.12;100.00
46724;BME280;32463;48.298;11.620;2022-11-20T01:08:32;95746.31;;;4.18;100.00
46724;BME280;32463;48.298;11.620;2022-11-20T01:11:00;95756.28;;;4.12;100.00
46724;BME280;32463;48.298;11.620;2022-11-20T01:13:29;95754.13;;;4.17;100.00
46724;BME280;32463;48.298;11.620;2022-11-20T01:18:39;95762.78;;;4.16;100.00
46724;BME280;32463;48.298;11.620;2022-11-20T01:21:08;95764.41;;;4.17;100.00
46724;BME280;32463;48.298;11.620;2022-11-20T01:23:37;95763.97;;;4.12;100.00
46724;BME280;32463;48.298;11.620;2022-11-20T01:26:06;95765.47;;;4.14;100.00
46724;BME280;32463;48.298;11.620;2022-11-20T01:28:33;95769.53;;;4.17;100.00
46724;BME280;32463;48.298;11.620;2022-11-20T01:31:00;95761.16;;;4.15;100.00
46724;BME280;32463;48.298;11.620;2022-11-20T01:33:27;95764.66;;;4.14;100.00
46724;BME280;32463;48.298;11.620;2022-11-20T01:36:03;95769.53;;;4.17;100.00
46724;BME280;32463;48.298;11.620;2022-11-20T01:38:30;95773.28;;;4.13;100.00
46724;BME280;32463;48.298;11.620;2022-11-20T01:40:57;95769.53;;;4.17;100.00
46724;BME280;32463;48.298;11.620;2022-11-20T01:43:23;95770.34;;;4.17;100.00
46724;BME280;32463;48.298;11.620;2022-11-20T01:48:23;95771.41;;;4.15;100.00
46724;BME280;32463;48.298;11.620;2022-11-20T01:50:52;95769.53;;;4.17;100.00
46724;BME280;32463;48.298;11.620;2022-11-20T01:53:21;95760.88;;;4.18;100.00
46724;BME280;32463;48.298;11.620;2022-11-20T01:55:53;95761.16;;;4.15;100.00
46724;BME280;32463;48.298;11.620;2022-11-20T01:58:23;95775.72;;;4.14;100.00
46724;BME280;32463;48.298;11.620;2022-11-20T02:00:52;95768.84;;;4.15;100.00
46724;BME280;32463;48.298;11.620;2022-11-20T02:03:20;95759.00;;;4.20;100.00
46724;BME280;32463;48.298;11.620;2022-11-20T02:05:55;95763.72;;;4.15;100.00
46724;BME280;32463;48.298;11.620;2022-11-20T02:08:23;95768.44;;;4.10;100.00
46724;BME280;32463;48.298;11.620;2022-11-20T02:10:50;95769.50;;;4.07;100.00
46724;BME280;32463;48.298;11.620;2022-11-20T02:13:16;95771.41;;;4.15;100.00
46724;BME280;32463;48.298;11.620;2022-11-20T02:16:01;95762.50;;;4.09;100.00
46724;BME280;32463;48.298;11.620;2022-11-20T02:18:28;95771.00;;;4.10;100.00
46724;BME280;32463;48.298;11.620;2022-11-20T02:21:21;95771.94;;;4.09;100.00
46724;BME280;32463;48.298;11.620;2022-11-20T02:24:06;95773.28;;;4.13;100.00
46724;BME280;32463;48.298;11.620;2022-11-20T02:26:59;95771.66;;;4.12;100.00
46724;BME280;32463;48.298;11.620;2022-11-20T02:29:49;95773.03;;;4.16;100.00
46724;BME280;32463;48.298;11.620;2022-11-20T02:32:29;95778.69;;;4.10;100.00
46724;BME280;32463;48.298;11.620;2022-11-20T02:34:56;95772.19;;;4.05;100.00
46724;BME280;32463;48.298;11.620;2022-11-20T02:37:30;95768.44;;;4.10;100.00
46724;BME280;32463;48.298;11.620;2022-11-20T02:39:58;95777.88;;;4.09;100.00
46724;BME280;32463;48.298;11.620;2022-11-20T02:42:25;95772.06;;;4.07;100.00
46724;BME280;32463;48.298;11.620;2022-11-20T02:44:51;95772.63;;;4.11;100.00
46724;BME280;32463;48.298;11.620;2022-11-20T02:47:18;95763.16;;;4.11;100.00
46724;BME280;32463;48.298;11.620;2022-11-20T02:49:44;95760.47;;;4.13;100.00
46724;BME280;32463;48.298;11.620;2022-11-20T02:52:10;95761.41;;;4.12;100.00
46724;BME280;32463;48.298;11.620;2022-11-20T02:54:37;95772.50;;;4.22;100.00
46724;BME280;32463;48.298;11.620;2022-11-20T02:57:03;95766.53;;;4.12;100.00
46724;BME280;32463;48.298;11.620;2022-11-20T02:59:30;95767.22;;;4.14;100.00
46724;BME280;32463;48.298;11.620;2022-11-20T03:01:56;95769.78;;;4.14;100.00
46724;BME280;32463;48.298;11.620;2022-11-20T03:04:22;95762.91;;;4.14;100.00
46724;BME280;32463;48.298;11.620;2022-11-20T03:06:49;95758.84;;;4.12;100.00
46724;BME280;32463;48.298;11.620;2022-11-20T03:09:15;95760.34;;;4.14;100.00
46724;BME280;32463;48.298;11.620;2022-11-20T03:11:42;95761.41;;;4.12;100.00
46724;BME280;32463;48.298;11.620;2022-11-20T03:14:08;95770.06;;;4.11;100.00
46724;BME280;32463;48.298;11.620;2022-11-20T03:16:35;95768.03;;;4.14;100.00
46724;BME280;32463;48.298;11.620;2022-11-20T03:19:03;95767.63;;;4.19;100.00
46724;BME280;32463;48.298;11.620;2022-11-20T03:21:29;95758.72;;;4.13;100.00
46724;BME280;32463;48.298;11.620;2022-11-20T03:23:56;95755.22;;;4.14;100.00
46724;BME280;32463;48.298;11.620;2022-11-20T03:26:25;95762.09;;;4.14;100.00
46724;BME280;32463;48.298;11.620;2022-11-20T03:31:23;95763.88;;;4.23;100.00
46724;BME280;32463;48.298;11.620;2022-11-20T03:33:50;95770.63;;;4.24;100.00
46724;BME280;32463;48.298;11.620;2022-11-20T03:36:18;95765.34;;;4.25;100.00
46724;BME280;32463;48.298;11.620;2022-11-20T03:38:45;95766.56;;;4.21;100.00
46724;BME280;32463;48.298;11.620;2022-11-20T03:41:15;95764.13;;;4.20;100.00
46724;BME280;32463;48.298;11.620;2022-11-20T03:43:41;95773.44;;;4.21;100.00
46724;BME280;32463;48.298;11.620;2022-11-20T03:46:08;95769.53;;;4.17;100.00
46724;BME280;32463;48.298;11.620;2022-11-20T03:48:34;95762.50;;;4.19;100.00
46724;BME280;32463;48.298;11.620;2022-11-20T03:53:39;95756.03;;;4.15;100.00
46724;BME280;32463;48.298;11.620;2022-11-20T03:56:07;95757.63;;;4.16;100.00
46724;BME280;32463;48.298;11.620;2022-11-20T03:58:37;95773.03;;;4.16;100.00
46724;BME280;32463;48.298;11.620;2022-11-20T04:01:09;95765.50;;;4.24;100.00
46724;BME280;32463;48.298;11.620;2022-11-20T04:03:38;95766.03;;;4.18;100.00
46724;BME280;32463;48.298;11.620;2022-11-20T04:06:18;95768.59;;;4.18;100.00
46724;BME280;32463;48.298;11.620;2022-11-20T04:08:45;95767.09;;;4.15;100.00
46724;BME280;32463;48.298;11.620;2022-11-20T04:11:14;95771.16;;;4.18;100.00
46724;BME280;32463;48.298;11.620;2022-11-20T04:13:42;95767.13;;;4.25;100.00
46724;BME280;32463;48.298;11.620;2022-11-20T04:16:09;95770.50;;;4.25;100.00
46724;BME280;32463;48.298;11.620;2022-11-20T04:18:36;95764.28;;;4.37;100.00
46724;BME280;32463;48.298;11.620;2022-11-20T04:21:03;95772.63;;;4.30;100.00
46724;BME280;32463;48.298;11.620;2022-11-20T04:23:30;95768.44;;;4.29;100.00
46724;BME280;32463;48.298;11.620;2022-11-20T04:26:07;95770.34;;;4.27;100.00
46724;BME280;32463;48.298;11.620;2022-11-20T04:28:34;95770.06;;;4.30;100.00
46724;BME280;32463;48.298;11.620;2022-11-20T04:31:06;95766.84;;;4.28;100.00
46724;BME280;32463;48.298;11.620;2022-11-20T04:33:33;95769.00;;;4.32;100.00
46724;BME280;32463;48.298;11.620;2022-11-20T04:36:04;95768.19;;;4.32;100.00
46724;BME280;32463;48.298;11.620;2022-11-20T04:38:31;95761.97;;;4.34;100.00
46724;BME280;32463;48.298;11.620;2022-11-20T04:40:59;95764.41;;;4.36;100.00
46724;BME280;32463;48.298;11.620;2022-11-20T04:43:26;95767.22;;;4.33;100.00
46724;BME280;32463;48.298;11.620;2022-11-20T04:45:54;95772.22;;;4.34;100.00
46724;BME280;32463;48.298;11.620;2022-11-20T04:48:20;95767.66;;;4.38;100.00
46724;BME280;32463;48.298;11.620;2022-11-20T04:50:47;95763.06;;;4.42;100.00
46724;BME280;32463;48.298;11.620;2022-11-20T04:53:14;95762.25;;;4.41;100.00
46724;BME280;32463;48.298;11.620;2022-11-20T04:55:40;95762.13;;;4.43;100.00
46724;BME280;32463;48.298;11.620;2022-11-20T04:58:07;95768.19;;;4.51;100.00
46724;BME280;32463;48.298;11.620;2022-11-20T05:00:33;95773.34;;;4.51;100.00
46724;BME280;32463;48.298;11.620;2022-11-20T05:03:00;95777.13;;;4.47;100.00
46724;BME280;32463;48.298;11.620;2022-11-20T05:05:26;95772.25;;;4.44;100.00
46724;BME280;32463;48.298;11.620;2022-11-20T05:07:55;95770.63;;;4.43;100.00
46724;BME280;32463;48.298;11.620;2022-11-20T05:10:21;95778.72;;;4.48;100.00
46724;BME280;32463;48.298;11.620;2022-11-20T05:12:48;95770.91;;;4.50;100.00
46724;BME280;32463;48.298;11.620;2022-11-20T05:15:14;95779.53;;;4.49;100.00
46724;BME280;32463;48.298;11.620;2022-11-20T05:17:41;95777.13;;;4.47;100.00
46724;BME280;32463;48.298;11.620;2022-11-20T05:20:07;95772.66;;;4.49;100.00
46724;BME280;32463;48.298;11.620;2022-11-20T05:22:34;95771.72;;;4.50;100.00
46724;BME280;32463;48.298;11.620;2022-11-20T05:25:00;95773.88;;;4.55;100.00
46724;BME280;32463;48.298;11.620;2022-11-20T05:27:27;95765.22;;;4.46;100.00
46724;BME280;32463;48.298;11.620;2022-11-20T05:29:53;95766.84;;;4.47;100.00
46724;BME280;32463;48.298;11.620;2022-11-20T05:32:20;95761.72;;;4.47;100.00
46724;BME280;32463;48.298;11.620;2022-11-20T05:34:46;95760.50;;;4.51;100.00
46724;BME280;32463;48.298;11.620;2022-11-20T05:37:12;95759.16;;;4.47;100.00
46724;BME280;32463;48.298;11.620;2022-11-20T05:39:39;95757.94;;;4.51;100.00
46724;BME280;32463;48.298;11.620;2022-11-20T05:42:05;95750.50;;;4.48;100.00
46724;BME280;32463;48.298;11.620;2022-11-20T05:44:49;95754.69;;;4.49;100.00
46724;BME280;32463;48.298;11.620;2022-11-20T05:47:15;95754.00;;;4.47;100.00
46724;BME280;32463;48.298;11.620;2022-11-20T05:49:42;95760.09;;;4.46;100.00
46724;BME280;32463;48.298;11.620;2022-11-20T05:52:08;95760.91;;;4.47;100.00
46724;BME280;32463;48.298;11.620;2022-11-20T05:54:34;95760.91;;;4.47;100.00
46724;BME280;32463;48.298;11.620;2022-11-20T05:57:01;95759.41;;;4.44;100.00
46724;BME280;32463;48.298;11.620;2022-11-20T05:59:27;95762.25;;;4.41;100.00
46724;BME280;32463;48.298;11.620;2022-11-20T06:01:54;95769.00;;;4.42;100.00
46724;BME280;32463;48.298;11.620;2022-11-20T06:04:20;95767.66;;;4.38;100.00
46724;BME280;32463;48.298;11.620;2022-11-20T06:06:47;95771.41;;;4.34;100.00
46724;BME280;32463;48.298;11.620;2022-11-20T06:09:13;95771.97;;;4.28;100.00
46724;BME280;32463;48.298;11.620;2022-11-20T06:11:40;95779.00;;;4.26;100.00
46724;BME280;32463;48.298;11.620;2022-11-20T06:14:06;95764.94;;;4.30;100.00
46724;BME280;32463;48.298;11.620;2022-11-20T06:16:32;95782.63;;;4.23;100.00
46724;BME280;32463;48.298;11.620;2022-11-20T06:18:59;95776.53;;;4.15;100.00
46724;BME280;32463;48.298;11.620;2022-11-20T06:21:25;95777.75;;;4.11;100.00
46724;BME280;32463;48.298;11.620;2022-11-20T06:23:52;95777.34;;;4.15;100.00
46724;BME280;32463;48.298;11.620;2022-11-20T06:26:24;95788.44;;;4.16;100.00
46724;BME280;32463;48.298;11.620;2022-11-20T06:28:52;95783.72;;;4.21;100.00
46724;BME280;32463;48.298;11.620;2022-11-20T06:31:21;95792.78;;;4.25;100.00
46724;BME280;32463;48.298;11.620;2022-11-20T06:33:49;95770.34;;;4.27;100.00
46724;BME280;32463;48.298;11.620;2022-11-20T06:36:19;95785.47;;;4.30;100.00
46724;BME280;32463;48.298;11.620;2022-11-20T06:38:46;95781.56;;;4.35;100.00
46724;BME280;32463;48.298;11.620;2022-11-20T06:41:18;95786.28;;;4.40;100.00
46724;BME280;32463;48.298;11.620;2022-11-20T06:43:45;95788.59;;;4.43;100.00
46724;BME280;32463;48.298;11.620;2022-11-20T06:46:12;95787.38;;;4.47;100.00
46724;BME280;32463;48.298;11.620;2022-11-20T06:48:40;95797.38;;;4.50;100.00
46724;BME280;32463;48.298;11.620;2022-11-20T06:51:07;95800.63;;;4.52;100.00
46724;BME280;32463;48.298;11.620;2022-11-20T06:53:34;95804.69;;;4.55;100.00
46724;BME280;32463;48.298;11.620;2022-11-20T06:56:01;95814.13;;;4.54;100.00
46724;BME280;32463;48.298;11.620;2022-11-20T06:58:30;95825.75;;;4.58;100.00
46724;BME280;32463;48.298;11.620;2022-11-20T07:01:01;95822.22;;;4.59;100.00
46724;BME280;32463;48.298;11.620;2022-11-20T07:03:28;95815.50;;;4.58;100.00
46724;BME280;32463;48.298;11.620;2022-11-20T07:05:55;95811.94;;;4.59;100.00
46724;BME280;32463;48.298;11.620;2022-11-20T07:08:22;95811.94;;;4.59;100.00
46724;BME280;32463;48.298;11.620;2022-11-20T07:10:49;95822.22;;;4.59;100.00
46724;BME280;32463;48.298;11.620;2022-11-20T07:13:16;95820.06;;;4.64;100.00
46724;BME280;32463;48.298;11.620;2022-11-20T07:15:42;95816.56;;;4.65;100.00
46724;BME280;32463;48.298;11.620;2022-11-20T07:18:09;95813.03;;;4.66;100.00
46724;BME280;32463;48.298;11.620;2022-11-20T07:20:36;95817.09;;;4.69;100.00
46724;BME280;32463;48.298;11.620;2022-11-20T07:23:02;95819.13;;;4.65;100.00
46724;BME280;32463;48.298;11.620;2022-11-20T07:25:29;95816.56;;;4.65;100.00
46724;BME280;32463;48.298;11.620;2022-11-20T07:27:59;95817.91;;;4.69;100.00
46724;BME280;32463;48.298;11.620;2022-11-20T07:30:27;95823.03;;;4.69;100.00
46724;BME280;32463;48.298;11.620;2022-11-20T07:32:55;95825.47;;;4.71;100.00
46724;BME280;32463;48.298;11.620;2022-11-20T07:35:22;95823.47;;;4.74;100.00
46724;BME280;32463;48.298;11.620;2022-11-20T07:37:49;95827.38;;;4.79;100.00
46724;BME280;32463;48.298;11.620;2022-11-20T07:40:16;95816.84;;;4.82;100.00
46724;BME280;32463;48.298;11.620;2022-11-20T07:42:54;95826.84;;;4.85;100.00
46724;BME280;32463;48.298;11.620;2022-11-20T07:45:23;95831.03;;;4.86;100.00
46724;BME280;32463;48.298;11.620;2022-11-20T07:47:50;95832.66;;;4.87;100.00
46724;BME280;32463;48.298;11.620;2022-11-20T07:50:18;95845.75;;;4.93;100.00
46724;BME280;32463;48.298;11.620;2022-11-20T07:52:44;95837.38;;;5.01;100.00
46724;BME280;32463;48.298;11.620;2022-11-20T07:55:11;95835.19;;;5.06;100.00
46724;BME280;32463;48.298;11.620;2022-11-20T07:57:38;95836.16;;;5.05;100.00
46724;BME280;32463;48.298;11.620;2022-11-20T08:00:06;95836.81;;;5.07;100.00
46724;BME280;32463;48.298;11.620;2022-11-20T08:02:34;95835.19;;;5.16;100.00
46724;BME280;32463;48.298;11.620;2022-11-20T08:05:00;95840.31;;;5.25;100.00
46724;BME280;32463;48.298;11.620;2022-11-20T08:07:26;95830.59;;;5.19;100.00
46724;BME280;32463;48.298;11.620;2022-11-20T08:09:53;95828.16;;;5.18;100.00
46724;BME280;32463;48.298;11.620;2022-11-20T08:12:20;95833.00;;;5.30;100.00
46724;BME280;32463;48.298;11.620;2022-11-20T08:15:05;95825.28;;;5.30;100.00
46724;BME280;32463;48.298;11.620;2022-11-20T08:17:32;95830.81;;;5.35;100.00
46724;BME280;32463;48.298;11.620;2022-11-20T08:19:58;95836.50;;;5.29;100.00
46724;BME280;32463;48.298;11.620;2022-11-20T08:22:25;95834.47;;;5.33;100.00
46724;BME280;32463;48.298;11.620;2022-11-20T08:24:51;95830.84;;;5.26;100.00
46724;BME280;32463;48.298;11.620;2022-11-20T08:27:17;95825.56;;;5.27;100.00
46724;BME280;32463;48.298;11.620;2022-11-20T08:29:44;95821.38;;;5.26;100.00
46724;BME280;32463;48.298;11.620;2022-11-20T08:32:10;95828.38;;;5.34;100.00
46724;BME280;32463;48.298;11.620;2022-11-20T08:34:37;95826.22;;;5.29;100.00
46724;BME280;32463;48.298;11.620;2022-11-20T08:37:03;95838.94;;;5.40;100.00
46724;BME280;32463;48.298;11.620;2022-11-20T08:39:30;95832.97;;;5.40;100.00
46724;BME280;32463;48.298;11.620;2022-11-20T08:41:57;95823.66;;;5.39;100.00
46724;BME280;32463;48.298;11.620;2022-11-20T08:44:23;95832.72;;;5.43;100.00
46724;BME280;32463;48.298;11.620;2022-11-20T08:46:50;95832.56;;;5.45;100.00
46724;BME280;32463;48.298;11.620;2022-11-20T08:49:16;95837.81;;;5.53;100.00
46724;BME280;32463;48.298;11.620;2022-11-20T08:51:43;95837.28;;;5.49;100.00
46724;BME280;32463;48.298;11.620;2022-11-20T08:54:10;95840.38;;;5.53;100.00
46724;BME280;32463;48.298;11.620;2022-11-20T08:56:37;95834.00;;;5.57;100.00
46724;BME280;32463;48.298;11.620;2022-11-20T08:59:03;95833.72;;;5.60;100.00
46724;BME280;32463;48.298;11.620;2022-11-20T09:01:30;95833.72;;;5.60;100.00
46724;BME280;32463;48.298;11.620;2022-11-20T09:03:56;95833.44;;;5.63;100.00
46724;BME280;32463;48.298;11.620;2022-11-20T09:06:24;95830.72;;;5.74;100.00
46724;BME280;32463;48.298;11.620;2022-11-20T09:08:52;95832.63;;;5.72;100.00
46724;BME280;32463;48.298;11.620;2022-11-20T09:11:19;95830.44;;;5.77;100.00
46724;BME280;32463;48.298;11.620;2022-11-20T09:13:45;95835.31;;;5.80;100.00
46724;BME280;32463;48.298;11.620;2022-11-20T09:16:12;95828.53;;;5.79;100.00
46724;BME280;32463;48.298;11.620;2022-11-20T09:18:38;95827.13;;;5.85;100.00
46724;BME280;32463;48.298;11.620;2022-11-20T09:21:08;95828.47;;;5.98;100.00
46724;BME280;32463;48.298;11.620;2022-11-20T09:23:35;95819.25;;;6.05;100.00
46724;BME280;32463;48.298;11.620;2022-11-20T09:26:06;95821.59;;;6.17;100.00
46724;BME280;32463;48.298;11.620;2022-11-20T09:28:33;95823.97;;;6.28;100.00
46724;BME280;32463;48.298;11.620;2022-11-20T09:31:00;95820.31;;;6.30;100.00
46724;BME280;32463;48.298;11.620;2022-11-20T09:33:27;95822.38;;;6.27;100.00
46724;BME280;32463;48.298;11.620;2022-11-20T09:35:53;95825.25;;;6.41;100.00
46724;BME280;32463;48.298;11.620;2022-11-20T09:38:20;95823.28;;;6.53;100.00
46724;BME280;32463;48.298;11.620;2022-11-20T09:48:32;95818.84;;;6.28;100.00
46724;BME280;32463;48.298;11.620;2022-11-20T09:51:08;95823.41;;;6.34;100.00
46724;BME280;32463;48.298;11.620;2022-11-20T09:56:28;95813.94;;;6.34;100.00
46724;BME280;32463;48.298;11.620;2022-11-20T09:58:59;95814.75;;;6.53;100.00
46724;BME280;32463;48.298;11.620;2022-11-20T10:01:30;95808.41;;;6.47;100.00
46724;BME280;32463;48.298;11.620;2022-11-20T10:04:10;95805.34;;;6.61;100.00
46724;BME280;32463;48.298;11.620;2022-11-20T10:06:44;95814.31;;;6.57;100.00
46724;BME280;32463;48.298;11.620;2022-11-20T10:14:48;95812.22;;;6.79;100.00
46724;BME280;32463;48.298;11.620;2022-11-20T10:17:21;95806.28;;;6.78;100.00
46724;BME280;32463;48.298;11.620;2022-11-20T10:20:10;95814.53;;;6.99;100.00
46724;BME280;32463;48.298;11.620;2022-11-20T10:30:59;95803.81;;;7.64;100.00
46724;BME280;32463;48.298;11.620;2022-11-20T10:33:31;95801.41;;;7.70;100.00
46724;BME280;32463;48.298;11.620;2022-11-20T10:36:19;95795.59;;;7.94;100.00
46724;BME280;32463;48.298;11.620;2022-11-20T10:38:55;95799.13;;;8.01;100.00
46724;BME280;32463;48.298;11.620;2022-11-20T10:41:27;95794.13;;;8.00;100.00
46724;BME280;32463;48.298;11.620;2022-11-20T10:44:09;95794.59;;;7.95;100.00
46724;BME280;32463;48.298;11.620;2022-11-20T10:46:44;95796.88;;;7.64;100.00
46724;BME280;32463;48.298;11.620;2022-11-20T10:49:19;95797.66;;;7.57;100.00
46724;BME280;32463;48.298;11.620;2022-11-20T10:52:13;95794.88;;;7.84;100.00
46724;BME280;32463;48.298;11.620;2022-11-20T10:54:59;95793.31;;;7.91;100.00
46724;BME280;32463;48.298;11.620;2022-11-20T11:00:25;95784.00;;;7.72;100.00
46724;BME280;32463;48.298;11.620;2022-11-20T11:02:53;95792.66;;;7.55;100.00
46724;BME280;32463;48.298;11.620;2022-11-20T11:05:43;95791.88;;;7.63;100.00
46724;BME280;32463;48.298;11.620;2022-11-20T11:08:17;95774.28;;;7.92;100.00
46724;BME280;32463;48.298;11.620;2022-11-20T11:10:56;95773.13;;;7.87;100.00
46724;BME280;32463;48.298;11.620;2022-11-20T11:13:25;95770.38;;;7.88;100.00
46724;BME280;32463;48.298;11.620;2022-11-20T11:15:52;95768.78;;;7.87;100.00
46724;BME280;32463;48.298;11.620;2022-11-20T11:20:51;95763.66;;;7.61;100.00
46724;BME280;32463;48.298;11.620;2022-11-20T11:23:35;95771.25;;;7.37;100.00
46724;BME280;32463;48.298;11.620;2022-11-20T11:26:04;95767.84;;;7.28;100.00
46724;BME280;32463;48.298;11.620;2022-11-20T11:28:32;95758.06;;;7.14;100.00
46724;BME280;32463;48.298;11.620;2022-11-20T11:30:58;95759.03;;;7.13;100.00
46724;BME280;32463;48.298;11.620;2022-11-20T11:33:30;95749.50;;;7.31;100.00
46724;BME280;32463;48.298;11.620;2022-11-20T11:36:04;95749.66;;;7.64;100.00
46724;BME280;32463;48.298;11.620;2022-11-20T11:38:43;95752.78;;;7.84;100.00
46724;BME280;32463;48.298;11.620;2022-11-20T11:41:17;95750.41;;;7.98;100.00
46724;BME280;32463;48.298;11.620;2022-11-20T11:43:53;95758.69;;;7.68;100.00
46724;BME280;32463;48.298;11.620;2022-11-20T11:46:39;95753.50;;;7.68;100.00
46724;BME280;32463;48.298;11.620;2022-11-20T11:57:04;95757.47;;;7.88;100.00
46724;BME280;32463;48.298;11.620;2022-11-20T11:59:46;95746.13;;;7.73;100.00
46724;BME280;32463;48.298;11.620;2022-11-20T12:02:37;95744.81;;;7.69;100.00
46724;BME280;32463;48.298;11.620;2022-11-20T12:05:08;95756.97;;;7.85;100.00
46724;BME280;32463;48.298;11.620;2022-11-20T12:07:41;95763.72;;;7.43;100.00
46724;BME280;32463;48.298;11.620;2022-11-20T12:10:17;95777.66;;;6.63;100.00
46724;BME280;32463;48.298;11.620;2022-11-20T12:12:52;95768.22;;;6.19;100.00
46724;BME280;32463;48.298;11.620;2022-11-20T12:15:32;95777.13;;;6.06;100.00
46724;BME280;32463;48.298;11.620;2022-11-20T12:18:00;95785.25;;;5.65;100.00
46724;BME280;32463;48.298;11.620;2022-11-20T12:20:33;95760.88;;;5.41;100.00
46724;BME280;32463;48.298;11.620;2022-11-20T12:23:07;95760.59;;;5.45;100.00
46724;BME280;32463;48.298;11.620;2022-11-20T12:25:36;95764.38;;;5.50;100.00
46724;BME280;32463;48.298;11.620;2022-11-20T12:28:38;95773.53;;;5.53;100.00
46724;BME280;32463;48.298;11.620;2022-11-20T12:31:19;95754.44;;;5.55;100.00
46724;BME280;32463;48.298;11.620;2022-11-20T12:33:55;95750.22;;;5.64;100.00
46724;BME280;32463;48.298;11.620;2022-11-20T12:41:55;95736.47;;;6.28;100.00
46724;BME280;32463;48.298;11.620;2022-11-20T12:45:10;95740.88;;;6.53;100.00
46724;BME280;32463;48.298;11.620;2022-11-20T12:56:09;95753.00;;;6.43;100.00
46724;BME280;32463;48.298;11.620;2022-11-20T13:01:32;95747.00;;;6.34;100.00
46724;BME280;32463;48.298;11.620;2022-11-20T13:06:55;95738.16;;;6.37;100.00
46724;BME280;32463;48.298;11.620;2022-11-20T13:09:23;95741.03;;;6.34;100.00
46724;BME280;32463;48.298;11.620;2022-11-20T13:14:36;95740.22;;;6.33;100.00
46724;BME280;32463;48.298;11.620;2022-11-20T13:17:13;95733.50;;;6.23;100.00
46724;BME280;32463;48.298;11.620;2022-11-20T13:19:40;95731.66;;;6.15;100.00
46724;BME280;32463;48.298;11.620;2022-11-20T13:22:08;95724.69;;;6.07;100.00
46724;BME280;32463;48.298;11.620;2022-11-20T13:24:35;95734.19;;;6.07;100.00
46724;BME280;32463;48.298;11.620;2022-11-20T13:29:35;95729.09;;;5.97;100.00
46724;BME280;32463;48.298;11.620;2022-11-20T13:32:12;95727.22;;;5.90;100.00
46724;BME280;32463;48.298;11.620;2022-11-20T13:34:54;95724.50;;;5.91;100.00
46724;BME280;32463;48.298;11.620;2022-11-20T13:37:35;95716.94;;;5.90;100.00
46724;BME280;32463;48.298;11.620;2022-11-20T13:42:38;95720.69;;;5.95;100.00
46724;BME280;32463;48.298;11.620;2022-11-20T13:45:20;95722.31;;;5.96;100.00
46724;BME280;32463;48.298;11.620;2022-11-20T13:47:51;95720.69;;;5.95;100.00
46724;BME280;32463;48.298;11.620;2022-11-20T13:50:18;95711.22;;;5.96;100.00
46724;BME280;32463;48.298;11.620;2022-11-20T13:53:01;95714.47;;;5.98;100.00
46724;BME280;32463;48.298;11.620;2022-11-20T13:55:54;95716.59;;;6.02;100.00
46724;BME280;32463;48.298;11.620;2022-11-20T14:01:21;95719.59;;;5.98;100.00
46724;BME280;32463;48.298;11.620;2022-11-20T14:03:49;95712.41;;;6.01;100.00
46724;BME280;32463;48.298;11.620;2022-11-20T14:06:43;95730.94;;;6.05;100.00
46724;BME280;32463;48.298;11.620;2022-11-20T14:09:25;95730.72;;;5.98;100.00
46724;BME280;32463;48.298;11.620;2022-11-20T14:11:52;95711.47;;;6.02;100.00
46724;BME280;32463;48.298;11.620;2022-11-20T14:14:24;95720.41;;;5.98;100.00
46724;BME280;32463;48.298;11.620;2022-11-20T14:16:52;95735.84;;;5.98;100.00
46724;BME280;32463;48.298;11.620;2022-11-20T14:22:10;95728.59;;;5.84;100.00
46724;BME280;32463;48.298;11.620;2022-11-20T14:24:37;95733.38;;;5.79;100.00
46724;BME280;32463;48.298;11.620;2022-11-20T14:27:03;95722.75;;;5.64;100.00
46724;BME280;32463;48.298;11.620;2022-11-20T14:29:35;95723.03;;;5.61;100.00